Terminal Aerodrome Forecast
Issued by NWS

Home | Current Version | Previous Version | Text Only | Print | Product List | Glossary On
Versions: 1 2 3 4 5 6 7 8 9 10 11 12
064
FTUS45 KRIW 061123
TAFLND
TAF
KLND 061123Z 0612/0712 VRB06KT P6SM SCT070 BKN120
     FM061700 06012KT P6SM VCSH SCT050 BKN080
     FM062000 07013KT P6SM VCTS SCT030CB BKN060
     FM062300 06010KT 4SM -RA SCT010 BKN020
     FM070700 29006KT 3SM -RA BKN010=

USA.gov is the U.S. government's official web portal to all federal, state and local government web resources and services.